Accueil
METAR-TAF:

METAR-TAF

Aéroports :

Aéroport de Vitoria-Gasteiz

Vitoria, Espagne

latitude: 42-53N, longitude: 002-43W, altitude: 513 m

Observation

Le bulletin a été fait il y a 40 minutes, à 02:30 UTC
Vent calme
Température 2°C
Humidité 93%
Pression 1025 hPa
Visibilité 10 km ou plus
pas de nuages en-dessous de 1500 mètres et pas de cumulonimbus.

METAR: LEVT 240230Z 00000KT CAVOK 02/01 Q1025

Heure: 04:10 (03:10 UTC)

Prévision

Le bulletin a été fait il y a 4 heures et 10 minutes, à 23:00 UTC
Prévision valable du 24 à 00 UTC au 24 à 24 UTC
Vent 2 kt de direction variable
Visibilité 10 km ou plus
pas de nuages en-dessous de 1500 mètres et pas de cumulonimbus.
Probabilité 30% :
Temporairement
du 24 à 02 UTC au 24 à 07 UTC
Visibilité: 3000 m
brume
Temporairement
du 24 à 11 UTC au 24 à 18 UTC
Vent 10 kt de nord/nord-est

TAF: LEVT 232300Z 2400/2424 VRB02KT CAVOK TX20/2414Z TN01/2405Z PROB30 TEMPO 2402/2407 3000 BR TEMPO 2411/2418 02010KT

Observations et prévisions météorologiques de plus de 4000 aéroports (messages METAR et TAF).

Les stations disponibles sont représentées par des disques jaunes et rouges sur la carte.

Passer la souris dessus pour voir le nom de la station.

Cliquer dessus pour voir les observations et prévisions météorologiques.

Pour changer de carte: cliquez sur les boutons verts avec une croix noire pour zoomer, sur le bouton vert avec un tiret pour effectuer un zoom arrière, ou sur les flèches vertes pour les cartes adjacentes.


METAR-TAF: